M I D A S
Marine Information and Data Acquisition System
Tripno 1885 of the Zeeleeuw from 2010-05-21 06:58:12 to 2010-05-21 13:27:16
Back to CruiseResearch ActivitiesStationsMapUnderway DataData graphs

EquipmentUnitsComment
TimeDGPSUTC
LatitudeDGPSDM.mWGS84
LongitudeDGPSDM.mWGS84
HeadingGyrodeg 
SOGDGPSknotsSpeed over ground
COGDGPSdegCourse over ground
DepthEcho soundermeters200 kHz
Missing or incorrect values are displayed as -999
Navigation data collected by the RV Zeeleeuw from 2010-05-21 06:52:44 to 2010-05-21 13:36:57
                                                                                    Next 1000 lines
Time Latitude Longitude Heading SOG COG Depth
2010-05-21 06:52:54 51°13.662 2°55.958 110.7 0.7 285 8.4
2010-05-21 06:52:59 51°13.662 2°55.956 110.2 1 285 8.4
2010-05-21 06:53:04 51°13.662 2°55.953 109.7 1.4 288 8.4
2010-05-21 06:53:10 51°13.663 2°55.948 109.7 1.8 286 8.6
2010-05-21 06:53:14 51°13.664 2°55.944 110.2 2.1 289 6.7
2010-05-21 06:53:20 51°13.665 2°55.938 111 2.6 288 -999
2010-05-21 06:53:26 51°13.667 2°55.931 111.8 2.9 291 -999
2010-05-21 06:53:31 51°13.669 2°55.924 112.2 3.2 290 -999
2010-05-21 06:53:37 51°13.671 2°55.916 112.5 3.5 292 -999
2010-05-21 06:53:43 51°13.673 2°55.906 112.6 3.7 291 -999
2010-05-21 06:53:48 51°13.675 2°55.898 112.6 4 291 -999
2010-05-21 06:53:53 51°13.677 2°55.889 112.1 4.2 291 -999
2010-05-21 06:53:58 51°13.679 2°55.881 111.8 4.3 291 -999
2010-05-21 06:54:03 51°13.681 2°55.872 111.5 4.3 291 -999
2010-05-21 06:54:08 51°13.683 2°55.863 111.4 4.3 290 -999
2010-05-21 06:54:13 51°13.685 2°55.854 111 4.2 290 -999
2010-05-21 06:54:17 51°13.687 2°55.847 110.4 4.1 289 -999
2010-05-21 06:54:22 51°13.689 2°55.839 109.9 4.1 289 -999
2010-05-21 06:54:28 51°13.691 2°55.829 109.5 4 289 -999
2010-05-21 06:54:33 51°13.692 2°55.82 108.7 4 289 -999
2010-05-21 06:54:37 51°13.694 2°55.814 107.8 3.9 287 -999
2010-05-21 06:54:42 51°13.695 2°55.806 106.9 3.8 288 -999
2010-05-21 06:54:47 51°13.697 2°55.798 106.1 3.7 286 -999
2010-05-21 06:54:53 51°13.698 2°55.789 104.9 3.6 286 -999
2010-05-21 06:54:57 51°13.699 2°55.783 103.7 3.5 285 -999
2010-05-21 06:55:02 51°13.701 2°55.776 102.6 3.4 284 14
2010-05-21 06:55:07 51°13.702 2°55.769 101.4 3.3 283 -999
2010-05-21 06:55:12 51°13.703 2°55.762 100.2 3.2 282 -999
2010-05-21 06:55:18 51°13.704 2°55.754 98.3 3.1 280 -999
2010-05-21 06:55:22 51°13.704 2°55.748 96.7 3 279 15.1
2010-05-21 06:55:27 51°13.705 2°55.742 95.5 2.9 278 15.1
2010-05-21 06:55:32 51°13.705 2°55.736 94.4 2.5 280 14.7
2010-05-21 06:55:37 51°13.706 2°55.732 93.3 1.8 279 14.4
2010-05-21 06:55:42 51°13.706 2°55.73 92 1.1 282 14.5
2010-05-21 06:55:46 51°13.706 2°55.728 88.3 0.9 285 14.6
2010-05-21 06:55:51 51°13.706 2°55.726 83.5 0.7 283 14.7
2010-05-21 06:55:56 51°13.707 2°55.725 79.2 0.5 293 14.7
2010-05-21 06:56:01 51°13.707 2°55.725 75.1 0.3 304 14.6
2010-05-21 06:56:06 51°13.707 2°55.724 71.2 0.3 329 14.5
2010-05-21 06:56:10 51°13.707 2°55.724 67.5 0.3 2 14.5
2010-05-21 06:56:15 51°13.708 2°55.725 63.7 0.4 11 14.5
2010-05-21 06:56:20 51°13.708 2°55.725 59.6 0.5 27 14.5
2010-05-21 06:56:26 51°13.709 2°55.726 55.6 0.7 26 14.5
2010-05-21 06:56:30 51°13.71 2°55.727 51.6 0.8 28 14.5
2010-05-21 06:56:35 51°13.711 2°55.728 47.6 1 28 14.8
2010-05-21 06:56:40 51°13.713 2°55.729 43.5 1.2 27 14.9
2010-05-21 06:56:44 51°13.714 2°55.73 39.3 1.4 25 14.9
2010-05-21 06:56:50 51°13.716 2°55.731 35 1.3 24 15
2010-05-21 06:56:54 51°13.718 2°55.732 30.8 1.2 18 15
2010-05-21 06:56:59 51°13.719 2°55.732 27.8 0.6 19 15
2010-05-21 06:57:04 51°13.719 2°55.732 25.3 0.1 334 15
2010-05-21 06:57:09 51°13.718 2°55.732 22.5 0.5 208 15.2
2010-05-21 06:57:14 51°13.717 2°55.731 19.7 1.1 202 14.9
2010-05-21 06:57:19 51°13.715 2°55.73 17.7 1.5 199 14.9
2010-05-21 06:57:23 51°13.713 2°55.729 16.3 1.8 197 6.9
2010-05-21 06:57:29 51°13.71 2°55.727 15.2 2 197 -999
2010-05-21 06:57:35 51°13.706 2°55.726 14.1 1.9 194 -999
2010-05-21 06:57:41 51°13.704 2°55.725 13.9 1.6 198 -999
2010-05-21 06:57:46 51°13.702 2°55.724 13.9 1.1 190 -999
2010-05-21 06:57:52 51°13.701 2°55.724 12.8 0.5 208 -999
2010-05-21 06:57:57 51°13.702 2°55.724 10.5 0.2 342 -999
2010-05-21 06:58:02 51°13.703 2°55.723 6.7 0.7 348 -999
2010-05-21 06:58:07 51°13.704 2°55.723 2.3 1.2 351 -999
2010-05-21 06:58:12 51°13.706 2°55.723 355.7 1.7 348 -999
2010-05-21 06:58:17 51°13.709 2°55.721 351 2.3 343 -999
2010-05-21 06:58:22 51°13.713 2°55.719 346.7 2.9 343 -999
2010-05-21 06:58:28 51°13.718 2°55.716 344.7 3.5 341 -999
2010-05-21 06:58:32 51°13.722 2°55.713 342.8 4.1 339 14.4
2010-05-21 06:58:37 51°13.728 2°55.71 341.9 4.6 338 14.5
2010-05-21 06:58:42 51°13.734 2°55.705 340.7 5 337 14.2
2010-05-21 06:58:46 51°13.74 2°55.701 339.4 5.5 337 14.1
2010-05-21 06:58:51 51°13.747 2°55.696 338.8 5.9 336 13.8
2010-05-21 06:58:56 51°13.755 2°55.691 338.2 6.4 335 13.6
2010-05-21 06:59:01 51°13.764 2°55.684 337.5 6.8 335 13.5
2010-05-21 06:59:06 51°13.773 2°55.678 336.8 7 335 13.5
2010-05-21 06:59:11 51°13.782 2°55.671 336.4 7.3 334 13.4
2010-05-21 06:59:15 51°13.789 2°55.665 336.3 7.6 335 13.4
2010-05-21 06:59:21 51°13.801 2°55.656 336.8 7.9 334 13.3
2010-05-21 06:59:25 51°13.809 2°55.649 336.7 8.1 334 13.4
2010-05-21 06:59:30 51°13.819 2°55.641 336.2 8.2 333 13.3
2010-05-21 06:59:35 51°13.83 2°55.633 335.7 8.4 333 13.3
2010-05-21 06:59:40 51°13.84 2°55.624 335.1 8.5 332 13.2
2010-05-21 06:59:45 51°13.851 2°55.615 334.7 8.7 333 13.2
2010-05-21 06:59:50 51°13.861 2°55.607 335.3 8.7 334 13.2
2010-05-21 06:59:54 51°13.87 2°55.601 337.2 8.8 336 12.9
2010-05-21 06:59:59 51°13.882 2°55.593 338.5 8.8 336 12.8
2010-05-21 07:00:04 51°13.893 2°55.585 339.4 8.9 337 12.9
2010-05-21 07:00:09 51°13.905 2°55.578 339.9 8.9 337 13.2
2010-05-21 07:00:14 51°13.916 2°55.57 340.4 8.9 338 13.2
2010-05-21 07:00:19 51°13.928 2°55.563 340.6 9 338 13.2
2010-05-21 07:00:24 51°13.939 2°55.555 340.9 9 339 13.2
2010-05-21 07:00:29 51°13.951 2°55.548 341.2 9.1 339 13.1
2010-05-21 07:00:34 51°13.963 2°55.541 341.6 9.1 339 13.2
2010-05-21 07:00:38 51°13.972 2°55.536 341.8 9.1 339 13.1
2010-05-21 07:00:44 51°13.986 2°55.527 341.8 9.1 339 13.2
2010-05-21 07:00:49 51°13.998 2°55.519 341.7 9.1 338 13.2
2010-05-21 07:00:54 51°14.01 2°55.512 341.3 9.1 338 13.1
2010-05-21 07:00:58 51°14.019 2°55.506 341.1 9.1 338 13.1
2010-05-21 07:01:04 51°14.034 2°55.497 340.7 9.1 338 13.1
2010-05-21 07:01:09 51°14.045 2°55.489 340.5 9.1 337 13.1
2010-05-21 07:01:14 51°14.057 2°55.481 339.6 9.2 336 13.1
2010-05-21 07:01:19 51°14.068 2°55.472 338.5 9.1 336 13.1
2010-05-21 07:01:23 51°14.078 2°55.465 337.6 9.2 335 13.2
2010-05-21 07:01:29 51°14.091 2°55.455 337 9.2 334 13.2
2010-05-21 07:01:34 51°14.103 2°55.446 335.9 9.2 333 13.2
2010-05-21 07:01:39 51°14.114 2°55.436 334.9 9.2 332 13.2
2010-05-21 07:01:44 51°14.125 2°55.426 334.3 9.2 332 13.1
2010-05-21 07:01:49 51°14.136 2°55.416 333.7 9.3 331 13.1
2010-05-21 07:01:54 51°14.148 2°55.406 333.5 9.4 331 13.1
2010-05-21 07:01:58 51°14.157 2°55.398 333.5 9.5 331 13
2010-05-21 07:02:04 51°14.171 2°55.386 333.6 9.7 332 13.1
2010-05-21 07:02:09 51°14.183 2°55.376 334.2 9.8 332 13.1
2010-05-21 07:02:14 51°14.195 2°55.366 334.7 10 333 13.1
2010-05-21 07:02:19 51°14.208 2°55.356 335.2 10.1 333 13.1
2010-05-21 07:02:24 51°14.221 2°55.346 335.8 10.3 334 13
2010-05-21 07:02:29 51°14.234 2°55.336 336.4 10.4 334 12.6
2010-05-21 07:02:34 51°14.247 2°55.326 337.1 10.6 335 12.3
2010-05-21 07:02:39 51°14.261 2°55.316 337.9 10.7 335 12.6
2010-05-21 07:02:44 51°14.274 2°55.306 338.3 10.7 334 12.8
2010-05-21 07:02:49 51°14.287 2°55.294 336.1 10.8 330 12.9
2010-05-21 07:02:54 51°14.3 2°55.282 332.6 10.9 328 12.9
2010-05-21 07:02:58 51°14.31 2°55.271 330.4 11 327 13
2010-05-21 07:03:04 51°14.325 2°55.255 329.4 11.1 326 13
2010-05-21 07:03:09 51°14.338 2°55.241 327.6 11.2 324 13
2010-05-21 07:03:14 51°14.351 2°55.225 325.3 11.3 322 13
2010-05-21 07:03:18 51°14.36 2°55.212 323.6 11.4 320 12.9
2010-05-21 07:03:23 51°14.372 2°55.196 322.3 11.5 320 12.7
2010-05-21 07:03:29 51°14.387 2°55.176 321.6 11.6 319 12.5
2010-05-21 07:03:34 51°14.399 2°55.159 321.6 11.6 320 12.8
2010-05-21 07:03:38 51°14.41 2°55.146 322.7 11.8 322 12.8
2010-05-21 07:03:44 51°14.425 2°55.127 323.9 11.8 323 12.7
2010-05-21 07:03:49 51°14.439 2°55.112 326 11.9 325 12.8
2010-05-21 07:03:54 51°14.452 2°55.097 327.2 12 325 13.3
2010-05-21 07:03:58 51°14.463 2°55.084 327.3 12.1 325 13.6
2010-05-21 07:04:04 51°14.48 2°55.066 327.4 12.2 326 13.4
2010-05-21 07:04:09 51°14.494 2°55.051 328.9 12.4 327 13.3
2010-05-21 07:04:14 51°14.509 2°55.037 330.3 12.5 329 13.2
2010-05-21 07:04:18 51°14.521 2°55.025 331 12.6 329 13.2
2010-05-21 07:04:24 51°14.539 2°55.008 330.3 12.8 328 13.7
2010-05-21 07:04:29 51°14.555 2°54.993 329.4 13 330 13.8
2010-05-21 07:04:34 51°14.571 2°54.98 329.8 13 332 13.7
2010-05-21 07:04:39 51°14.587 2°54.967 330.8 13.1 332 13.8
2010-05-21 07:04:44 51°14.603 2°54.952 330.3 13.2 330 13.7
2010-05-21 07:04:49 51°14.619 2°54.937 328 13.2 328 13.6
2010-05-21 07:04:54 51°14.634 2°54.921 326.1 13.2 326 13.4
2010-05-21 07:04:59 51°14.649 2°54.904 323.9 13.3 326 14
2010-05-21 07:05:04 51°14.665 2°54.888 323.6 13.3 326 13.9
2010-05-21 07:05:09 51°14.68 2°54.871 323.2 13.4 327 13.9
2010-05-21 07:05:14 51°14.696 2°54.855 323.5 13.5 326 13.9
2010-05-21 07:05:18 51°14.708 2°54.841 323.8 13.4 326 13.9
2010-05-21 07:05:24 51°14.726 2°54.821 323.8 13.5 326 14.1
2010-05-21 07:05:29 51°14.742 2°54.804 323.8 13.5 326 13.9
2010-05-21 07:05:34 51°14.757 2°54.788 324.5 13.5 327 14
2010-05-21 07:05:39 51°14.773 2°54.772 326 13.5 327 13.8
2010-05-21 07:05:43 51°14.786 2°54.76 326.5 13.5 329 13.8
2010-05-21 07:05:49 51°14.805 2°54.742 327.2 13.6 331 13.9
2010-05-21 07:05:54 51°14.822 2°54.728 328.8 13.6 331 13.9
2010-05-21 07:05:58 51°14.835 2°54.716 328.8 13.6 330 13.8
2010-05-21 07:06:04 51°14.855 2°54.698 328.8 13.6 330 13.8
2010-05-21 07:06:09 51°14.871 2°54.683 328.4 13.6 331 13.8
2010-05-21 07:06:14 51°14.888 2°54.668 328.3 13.6 330 13.9
2010-05-21 07:06:18 51°14.901 2°54.656 327.8 13.5 330 13.8
2010-05-21 07:06:24 51°14.92 2°54.639 327.6 13.6 330 13.7
2010-05-21 07:06:29 51°14.936 2°54.624 327.6 13.6 330 13.7
2010-05-21 07:06:34 51°14.953 2°54.609 327.5 13.6 330 12.1
2010-05-21 07:06:39 51°14.969 2°54.593 327.1 13.5 329 11.8
2010-05-21 07:06:44 51°14.985 2°54.577 326.7 13.5 329 11.8
2010-05-21 07:06:49 51°15 2°54.562 326.3 13.5 329 11.6
2010-05-21 07:06:54 51°15.017 2°54.547 326.6 13.6 330 11.5
2010-05-21 07:06:59 51°15.033 2°54.532 327.2 13.6 330 11.4
2010-05-21 07:07:04 51°15.049 2°54.517 327.6 13.6 331 11.4
2010-05-21 07:07:09 51°15.066 2°54.502 327.6 13.7 331 11
2010-05-21 07:07:14 51°15.083 2°54.488 327.8 13.7 331 10.8
2010-05-21 07:07:18 51°15.096 2°54.476 328 13.6 331 11.2
2010-05-21 07:07:24 51°15.115 2°54.458 327.6 13.6 330 10.9
2010-05-21 07:07:29 51°15.131 2°54.442 327.1 13.6 329 10.9
2010-05-21 07:07:34 51°15.148 2°54.427 326.9 13.6 329 10.7
2010-05-21 07:07:38 51°15.161 2°54.414 326.1 13.6 327 10.9
2010-05-21 07:07:44 51°15.18 2°54.394 325.4 13.7 328 10.9
2010-05-21 07:07:49 51°15.195 2°54.377 324.6 13.5 323 10.9
2010-05-21 07:07:54 51°15.21 2°54.36 323.7 13.6 325 10.9
2010-05-21 07:07:58 51°15.222 2°54.345 322.3 13.6 322 11
2010-05-21 07:08:03 51°15.237 2°54.327 321.3 13.6 323 11.2
2010-05-21 07:08:09 51°15.255 2°54.304 320.4 13.6 321 11.2
2010-05-21 07:08:14 51°15.269 2°54.285 319.5 13.6 321 11.3
2010-05-21 07:08:19 51°15.284 2°54.266 319 13.5 320 11.4
2010-05-21 07:08:23 51°15.295 2°54.25 318.1 13.5 320 11.5
2010-05-21 07:08:29 51°15.312 2°54.227 317.6 13.5 318 11.6
2010-05-21 07:08:34 51°15.326 2°54.207 317 13.5 318 11.6
2010-05-21 07:08:38 51°15.337 2°54.191 316.5 13.5 317 11.6
2010-05-21 07:08:44 51°15.354 2°54.166 316.4 13.5 318 11.7
2010-05-21 07:08:49 51°15.367 2°54.146 316.4 13.5 318 11.6
2010-05-21 07:08:54 51°15.381 2°54.126 316.7 13.5 318 11.9
2010-05-21 07:08:58 51°15.393 2°54.111 318.2 13.6 322 12
2010-05-21 07:09:04 51°15.411 2°54.089 319 13.6 321 12.1
2010-05-21 07:09:09 51°15.426 2°54.071 320.2 13.6 323 12.1
2010-05-21 07:09:14 51°15.441 2°54.053 321.3 13.6 323 12.1
2010-05-21 07:09:18 51°15.453 2°54.039 322 13.6 325 12.3
2010-05-21 07:09:24 51°15.472 2°54.018 322.8 13.6 324 12.4
2010-05-21 07:09:29 51°15.487 2°54 323.1 13.6 326 12.3
2010-05-21 07:09:34 51°15.503 2°53.983 323.3 13.6 324 12.3
2010-05-21 07:09:38 51°15.515 2°53.969 322.9 13.6 324 12.3
2010-05-21 07:09:44 51°15.533 2°53.947 322 13.6 323 12.4
2010-05-21 07:09:49 51°15.548 2°53.929 321.1 13.6 323 12.5
2010-05-21 07:09:54 51°15.562 2°53.91 320.6 13.6 321 12.6
2010-05-21 07:09:58 51°15.574 2°53.895 319.7 13.5 322 12.5
2010-05-21 07:10:04 51°15.591 2°53.872 319.2 13.5 321 12.7
2010-05-21 07:10:09 51°15.606 2°53.854 319.1 13.5 321 12.8
2010-05-21 07:10:14 51°15.62 2°53.835 318.7 13.5 320 12.9
2010-05-21 07:10:18 51°15.632 2°53.82 318.7 13.5 321 12.9
2010-05-21 07:10:24 51°15.649 2°53.797 318.7 13.5 320 12.9
2010-05-21 07:10:29 51°15.664 2°53.778 318.6 13.5 321 13.1
2010-05-21 07:10:34 51°15.679 2°53.76 319 13.5 322 13
2010-05-21 07:10:39 51°15.693 2°53.741 319.3 13.5 322 12.9
2010-05-21 07:10:44 51°15.708 2°53.722 318.9 13.4 321 13.2
2010-05-21 07:10:49 51°15.722 2°53.704 318.9 13.5 322 13.1
2010-05-21 07:10:54 51°15.737 2°53.685 318.9 13.4 321 13.2
2010-05-21 07:10:59 51°15.751 2°53.667 318.9 13.4 322 13.2
2010-05-21 07:11:04 51°15.766 2°53.648 318.9 13.4 321 13.3
2010-05-21 07:11:09 51°15.781 2°53.63 319.1 13.4 322 13.2
2010-05-21 07:11:14 51°15.795 2°53.611 319.2 13.3 321 13.2
2010-05-21 07:11:18 51°15.807 2°53.597 318.9 13.4 321 13.4
2010-05-21 07:11:24 51°15.824 2°53.574 319.1 13.4 322 13.5
2010-05-21 07:11:29 51°15.839 2°53.556 319.1 13.3 321 13.6
2010-05-21 07:11:34 51°15.853 2°53.538 318.9 13.3 322 13.3
2010-05-21 07:11:38 51°15.865 2°53.523 318.9 13.3 322 13.5
2010-05-21 07:11:44 51°15.882 2°53.501 319.1 13.3 322 13.3
2010-05-21 07:11:49 51°15.896 2°53.483 319.2 13.3 321 13.6
2010-05-21 07:11:54 51°15.911 2°53.465 319.1 13.3 321 13.5
2010-05-21 07:11:58 51°15.922 2°53.45 318.9 13.3 322 13.8
2010-05-21 07:12:04 51°15.94 2°53.428 319 13.3 321 13.8
2010-05-21 07:12:09 51°15.954 2°53.41 319.1 13.3 322 13.6
2010-05-21 07:12:14 51°15.969 2°53.392 319 13.3 322 13.6
2010-05-21 07:12:19 51°15.983 2°53.374 318.9 13.3 322 13.7
2010-05-21 07:12:23 51°15.995 2°53.36 319.3 13.3 323 13.8
2010-05-21 07:12:29 51°16.012 2°53.338 319.3 13.3 322 13.8
2010-05-21 07:12:34 51°16.027 2°53.321 319.4 13.3 323 13.9
2010-05-21 07:12:38 51°16.039 2°53.306 319.4 13.3 322 13.8
2010-05-21 07:12:44 51°16.056 2°53.285 319.2 13.3 323 13.9
2010-05-21 07:12:49 51°16.071 2°53.267 319.3 13.3 322 13.9
2010-05-21 07:12:54 51°16.086 2°53.249 319.3 13.3 323 13.9
2010-05-21 07:12:59 51°16.101 2°53.232 319.4 13.3 323 13.8
2010-05-21 07:13:04 51°16.115 2°53.214 319.5 13.4 323 14
2010-05-21 07:13:09 51°16.131 2°53.197 320.6 13.4 324 14
2010-05-21 07:13:14 51°16.146 2°53.18 321.5 13.4 326 14
2010-05-21 07:13:19 51°16.161 2°53.164 322.7 13.4 326 14
2010-05-21 07:13:24 51°16.177 2°53.148 323.5 13.4 327 13.9
2010-05-21 07:13:29 51°16.193 2°53.133 324.6 13.5 328 14.2
2010-05-21 07:13:34 51°16.209 2°53.117 324.9 13.5 328 13.9
2010-05-21 07:13:39 51°16.225 2°53.102 325.7 13.5 330 14
2010-05-21 07:13:43 51°16.238 2°53.089 326.2 13.5 329 14.2
2010-05-21 07:13:49 51°16.257 2°53.072 326.9 13.6 331 14
2010-05-21 07:13:54 51°16.274 2°53.057 327 13.6 330 14
2010-05-21 07:13:59 51°16.29 2°53.042 327 13.6 330 14
2010-05-21 07:14:04 51°16.306 2°53.026 326.7 13.5 330 14.2
2010-05-21 07:14:09 51°16.323 2°53.011 327 13.5 330 14
2010-05-21 07:14:14 51°16.339 2°52.996 327 13.6 329 14
2010-05-21 07:14:18 51°16.352 2°52.984 326.7 13.6 331 14
2010-05-21 07:14:23 51°16.368 2°52.969 326.8 13.6 330 13.9
2010-05-21 07:14:29 51°16.388 2°52.952 326.9 13.6 330 13.9
2010-05-21 07:14:34 51°16.404 2°52.937 327.2 13.7 331 14
2010-05-21 07:14:38 51°16.418 2°52.926 328 13.7 331 14
2010-05-21 07:14:43 51°16.434 2°52.911 328.3 13.7 332 13.8
2010-05-21 07:14:49 51°16.454 2°52.894 328.6 13.7 331 13.9
2010-05-21 07:14:54 51°16.471 2°52.879 328.5 13.7 332 13.8
2010-05-21 07:14:59 51°16.488 2°52.865 328.5 13.7 332 13.7
2010-05-21 07:15:03 51°16.501 2°52.854 328.8 13.7 332 13.7
2010-05-21 07:15:09 51°16.521 2°52.837 328.7 13.7 332 13.6
2010-05-21 07:15:14 51°16.538 2°52.822 328.7 13.7 332 13.7
2010-05-21 07:15:18 51°16.551 2°52.811 328.6 13.7 332 13.4
2010-05-21 07:15:24 51°16.571 2°52.794 328.5 13.7 332 13.3
2010-05-21 07:15:29 51°16.588 2°52.78 328.6 13.7 333 13.3
2010-05-21 07:15:34 51°16.605 2°52.766 329.1 13.7 333 13.4
2010-05-21 07:15:39 51°16.622 2°52.752 329.6 13.7 333 13.3
2010-05-21 07:15:44 51°16.639 2°52.739 330.2 13.8 334 13.1
2010-05-21 07:15:49 51°16.656 2°52.726 330.6 13.8 334 13.2
2010-05-21 07:15:54 51°16.673 2°52.713 330.7 13.8 334 13.1
2010-05-21 07:15:59 51°16.69 2°52.699 330.7 13.8 334 12.8
2010-05-21 07:16:04 51°16.707 2°52.686 330.6 13.7 334 12.8
2010-05-21 07:16:09 51°16.725 2°52.673 330.7 13.8 334 12.3
2010-05-21 07:16:14 51°16.742 2°52.66 330.7 13.8 334 12.1
2010-05-21 07:16:19 51°16.759 2°52.647 330.9 13.8 335 11.9
2010-05-21 07:16:24 51°16.776 2°52.634 331.1 13.7 334 11.9
2010-05-21 07:16:29 51°16.794 2°52.621 331 13.8 334 11.9
2010-05-21 07:16:34 51°16.811 2°52.607 330.7 13.8 334 11.9
2010-05-21 07:16:38 51°16.824 2°52.597 330.6 13.8 334 11.7
2010-05-21 07:16:44 51°16.845 2°52.581 330.6 13.8 334 11.9
2010-05-21 07:16:49 51°16.862 2°52.567 330.4 13.8 334 12
2010-05-21 07:16:54 51°16.879 2°52.554 330.5 13.8 334 11.9
2010-05-21 07:16:59 51°16.896 2°52.54 330.6 13.8 334 11.8
2010-05-21 07:17:03 51°16.91 2°52.529 330.6 13.8 333 11.9
2010-05-21 07:17:09 51°16.93 2°52.512 329.9 13.8 332 11.9
2010-05-21 07:17:14 51°16.947 2°52.497 329.7 13.8 332 11.7
2010-05-21 07:17:18 51°16.961 2°52.487 330.5 13.8 333 11.8
2010-05-21 07:17:24 51°16.982 2°52.47 331.2 13.8 333 11.6
2010-05-21 07:17:29 51°16.999 2°52.457 331.7 13.8 335 11.5
2010-05-21 07:17:34 51°17.016 2°52.443 332.3 13.8 333 11.7
2010-05-21 07:17:39 51°17.033 2°52.43 332.5 13.8 334 11.7
2010-05-21 07:17:44 51°17.05 2°52.416 332.5 13.7 333 11.5
2010-05-21 07:17:49 51°17.067 2°52.403 332.5 13.8 334 11.9
2010-05-21 07:17:54 51°17.084 2°52.389 332.6 13.8 333 11.9
2010-05-21 07:17:59 51°17.101 2°52.376 332.5 13.8 335 12.1
2010-05-21 07:18:04 51°17.119 2°52.363 333.2 13.8 335 12
2010-05-21 07:18:09 51°17.136 2°52.351 334.2 13.8 336 12.1
2010-05-21 07:18:14 51°17.154 2°52.34 335.8 13.9 339 12.2
2010-05-21 07:18:18 51°17.169 2°52.332 337.6 13.9 339 12.2
2010-05-21 07:18:24 51°17.191 2°52.32 338.8 13.9 341 12.3
2010-05-21 07:18:29 51°17.209 2°52.31 339.9 13.9 341 12.5
2010-05-21 07:18:34 51°17.228 2°52.301 341.3 13.9 344 12.4
2010-05-21 07:18:38 51°17.242 2°52.294 342.5 13.9 343 12.2
2010-05-21 07:18:44 51°17.265 2°52.285 343.5 14 346 12.4
2010-05-21 07:18:49 51°17.283 2°52.276 343.9 13.9 345 12.6
2010-05-21 07:18:54 51°17.302 2°52.269 344.5 14 346 12.7
2010-05-21 07:18:59 51°17.321 2°52.262 345.3 14 346 12.8
2010-05-21 07:19:03 51°17.336 2°52.256 345.6 14 347 13.1
2010-05-21 07:19:09 51°17.359 2°52.248 345.9 14 347 13.1
2010-05-21 07:19:14 51°17.378 2°52.241 346.1 14 348 13.2
2010-05-21 07:19:18 51°17.393 2°52.236 347.3 14 348 13.3
2010-05-21 07:19:24 51°17.416 2°52.228 347.7 14 350 13.2
2010-05-21 07:19:29 51°17.435 2°52.222 348.6 14 349 13.2
2010-05-21 07:19:34 51°17.454 2°52.217 349.1 14 350 13.3
2010-05-21 07:19:39 51°17.473 2°52.212 349.6 14.1 350 13.2
2010-05-21 07:19:44 51°17.492 2°52.206 349.8 14 350 13.1
2010-05-21 07:19:49 51°17.512 2°52.201 350 14.1 351 13.3
2010-05-21 07:19:54 51°17.531 2°52.196 350 14 350 13.3
2010-05-21 07:19:59 51°17.55 2°52.191 350.2 14 351 13.2
2010-05-21 07:20:04 51°17.57 2°52.185 350 14.1 350 13.3
2010-05-21 07:20:09 51°17.589 2°52.18 350 14.1 350 13.2
2010-05-21 07:20:14 51°17.608 2°52.175 350 14.1 350 13.2
2010-05-21 07:20:19 51°17.627 2°52.17 349.8 14 350 13.3
2010-05-21 07:20:24 51°17.646 2°52.164 349.8 14 350 13.2
2010-05-21 07:20:29 51°17.666 2°52.16 350 14.1 351 13.2
2010-05-21 07:20:34 51°17.685 2°52.155 350.1 14.1 350 13.2
2010-05-21 07:20:39 51°17.704 2°52.15 349.8 14 350 13.3
2010-05-21 07:20:44 51°17.724 2°52.146 351 14.1 354 13.1
2010-05-21 07:20:49 51°17.743 2°52.142 352.6 14.1 353 13.1
2010-05-21 07:20:54 51°17.762 2°52.14 353.4 14.1 356 13.1
2010-05-21 07:20:59 51°17.782 2°52.138 354.9 14.1 356 13.3
2010-05-21 07:21:04 51°17.801 2°52.137 356.8 14.2 359 13.3
2010-05-21 07:21:09 51°17.821 2°52.136 357.9 14.1 359 13.1
2010-05-21 07:21:14 51°17.84 2°52.138 0.3 14.2 3 13.2
2010-05-21 07:21:18 51°17.856 2°52.139 1.5 14.2 2 13.2
2010-05-21 07:21:24 51°17.88 2°52.142 2.9 14.2 5 13
2010-05-21 07:21:29 51°17.899 2°52.144 4.4 14.2 5 13.1
2010-05-21 07:21:34 51°17.919 2°52.148 5.6 14.2 7 13.1
2010-05-21 07:21:38 51°17.934 2°52.151 6.7 14.3 7 13.3
2010-05-21 07:21:44 51°17.958 2°52.156 7.3 14.2 8 13.1
2010-05-21 07:21:49 51°17.977 2°52.16 8.1 14.3 8 13.3
2010-05-21 07:21:54 51°17.997 2°52.165 8.6 14.3 8 13.2
2010-05-21 07:21:59 51°18.017 2°52.17 9.5 14.3 9 13.2
2010-05-21 07:22:03 51°18.032 2°52.174 9.5 14.3 9 13.3
2010-05-21 07:22:09 51°18.056 2°52.18 9.5 14.3 9 12.9
2010-05-21 07:22:14 51°18.075 2°52.185 9.8 14.3 9 13.1
2010-05-21 07:22:19 51°18.095 2°52.19 9.6 14.3 9 13.1
2010-05-21 07:22:24 51°18.114 2°52.195 9.6 14.3 9 13.2
2010-05-21 07:22:29 51°18.134 2°52.2 9.5 14.3 9 13.3
2010-05-21 07:22:34 51°18.153 2°52.205 9.5 14.3 9 13.3
2010-05-21 07:22:39 51°18.173 2°52.211 9.9 14.4 10 13.4
2010-05-21 07:22:44 51°18.193 2°52.216 10 14.3 9 13.3
2010-05-21 07:22:49 51°18.212 2°52.221 9.6 14.3 10 13.3
2010-05-21 07:22:54 51°18.232 2°52.226 9.5 14.3 9 13.2
2010-05-21 07:22:58 51°18.248 2°52.23 9.1 14.4 9 13.4
2010-05-21 07:23:04 51°18.271 2°52.236 8.8 14.4 9 13.2
2010-05-21 07:23:09 51°18.291 2°52.241 8.8 14.4 9 13.3
2010-05-21 07:23:14 51°18.311 2°52.246 8.8 14.4 9 13.3
2010-05-21 07:23:19 51°18.33 2°52.251 8.7 14.4 9 13.3
2010-05-21 07:23:23 51°18.346 2°52.255 8.8 14.4 8 13.2
2010-05-21 07:23:29 51°18.37 2°52.259 7.6 14.3 7 13.2
2010-05-21 07:23:34 51°18.39 2°52.263 7.1 14.3 7 13.2
2010-05-21 07:23:38 51°18.405 2°52.266 5.9 14.3 5 13.2
2010-05-21 07:23:43 51°18.425 2°52.269 5.8 14.3 7 13
2010-05-21 07:23:49 51°18.449 2°52.273 5.8 14.3 5 13.2
2010-05-21 07:23:54 51°18.468 2°52.276 5.2 14.3 6 13.3
2010-05-21 07:23:59 51°18.488 2°52.278 4.9 14.3 5 13.4
2010-05-21 07:24:03 51°18.504 2°52.281 4.7 14.2 5 13.4
2010-05-21 07:24:09 51°18.527 2°52.284 4.7 14.2 5 13.6
2010-05-21 07:24:14 51°18.547 2°52.286 4.8 14.2 4 13.6
2010-05-21 07:24:18 51°18.563 2°52.288 4.5 14.2 4 13.6
2010-05-21 07:24:24 51°18.586 2°52.291 4.5 14.2 4 13.7
2010-05-21 07:24:29 51°18.606 2°52.293 4.6 14.2 4 13.6
2010-05-21 07:24:34 51°18.626 2°52.295 4.4 14.2 4 13.7
2010-05-21 07:24:39 51°18.645 2°52.298 4.4 14.2 5 13.8
2010-05-21 07:24:44 51°18.665 2°52.3 4.8 14.1 4 13.9
2010-05-21 07:24:49 51°18.684 2°52.303 4.8 14.1 5 14
2010-05-21 07:24:54 51°18.704 2°52.305 4.7 14.1 4 14.1
2010-05-21 07:24:58 51°18.719 2°52.307 4.6 14.1 4 14
2010-05-21 07:25:04 51°18.743 2°52.309 4.6 14.1 4 14.2
2010-05-21 07:25:09 51°18.762 2°52.311 4.6 14.1 5 14.2
2010-05-21 07:25:14 51°18.782 2°52.314 4.9 14.1 4 14.3
2010-05-21 07:25:19 51°18.801 2°52.316 4.9 14.1 5 14.4
2010-05-21 07:25:23 51°18.817 2°52.318 5 14.1 4 14.7
2010-05-21 07:25:29 51°18.84 2°52.32 4.7 14.1 4 14.6
2010-05-21 07:25:34 51°18.86 2°52.322 4.9 14.1 3 14.7
2010-05-21 07:25:38 51°18.876 2°52.324 4.7 14.1 4 14.8
2010-05-21 07:25:43 51°18.895 2°52.326 4.5 14.1 3 14.8
2010-05-21 07:25:49 51°18.919 2°52.328 4.3 14.1 4 15.1
2010-05-21 07:25:54 51°18.938 2°52.329 4.4 14.1 4 15
2010-05-21 07:25:59 51°18.958 2°52.331 4.5 14.2 4 15.2
2010-05-21 07:26:03 51°18.974 2°52.333 4.7 14.1 4 15
2010-05-21 07:26:09 51°18.997 2°52.336 5 14.2 4 15.3
2010-05-21 07:26:14 51°19.017 2°52.338 4.8 14.2 3 15.3
2010-05-21 07:26:18 51°19.032 2°52.34 4.8 14.2 4 15.5
2010-05-21 07:26:24 51°19.056 2°52.342 4.6 14.2 3 15.5
2010-05-21 07:26:29 51°19.076 2°52.344 4.4 14.2 4 15.7
2010-05-21 07:26:34 51°19.095 2°52.346 4.4 14.2 3 15.6
2010-05-21 07:26:39 51°19.115 2°52.348 4.4 14.2 4 15.7
2010-05-21 07:26:44 51°19.135 2°52.35 4.4 14.2 4 15.9
2010-05-21 07:26:49 51°19.154 2°52.352 4.2 14.2 3 15.9
2010-05-21 07:26:54 51°19.174 2°52.354 4.3 14.2 4 15.9
2010-05-21 07:26:59 51°19.194 2°52.356 4.4 14.2 3 16.1
2010-05-21 07:27:04 51°19.213 2°52.358 4.1 14.2 4 16.2
2010-05-21 07:27:09 51°19.233 2°52.36 4 14.2 4 16.3
2010-05-21 07:27:14 51°19.253 2°52.362 4.3 14.2 4 16.5
2010-05-21 07:27:19 51°19.272 2°52.364 4.4 14.2 3 16.5
2010-05-21 07:27:24 51°19.292 2°52.366 4.4 14.2 4 16.5
2010-05-21 07:27:29 51°19.311 2°52.368 4.4 14.2 4 16.7
2010-05-21 07:27:34 51°19.331 2°52.37 4.4 14.2 3 16.8
2010-05-21 07:27:38 51°19.347 2°52.372 4.4 14.2 4 16.8
2010-05-21 07:27:43 51°19.367 2°52.373 4.4 14.2 3 16.9
2010-05-21 07:27:49 51°19.39 2°52.376 4.3 14.2 4 16.8
2010-05-21 07:27:54 51°19.41 2°52.378 4.4 14.2 3 17
2010-05-21 07:27:59 51°19.43 2°52.38 4.4 14.3 4 17
2010-05-21 07:28:03 51°19.445 2°52.382 4.4 14.3 4 17
2010-05-21 07:28:09 51°19.469 2°52.384 4.4 14.3 4 17.2
2010-05-21 07:28:14 51°19.489 2°52.387 4.5 14.3 4 17.1
2010-05-21 07:28:18 51°19.505 2°52.388 4.6 14.3 4 17.3
2010-05-21 07:28:24 51°19.528 2°52.391 4.5 14.3 5 17.2
2010-05-21 07:28:29 51°19.548 2°52.394 4.6 14.2 5 17.3
2010-05-21 07:28:34 51°19.568 2°52.396 4.7 14.2 5 17.3
2010-05-21 07:28:38 51°19.584 2°52.398 4.7 14.2 5 17.3
2010-05-21 07:28:44 51°19.607 2°52.401 4.7 14.2 4 17.3
2010-05-21 07:28:49 51°19.627 2°52.404 4.5 14.2 4 17.5
2010-05-21 07:28:54 51°19.647 2°52.406 4.4 14.2 5 17.4
2010-05-21 07:28:59 51°19.666 2°52.409 4.6 14.2 5 17.6
2010-05-21 07:29:04 51°19.686 2°52.412 4.7 14.2 5 17.6
2010-05-21 07:29:09 51°19.705 2°52.414 4.8 14.2 5 17.6
2010-05-21 07:29:14 51°19.725 2°52.417 4.8 14.2 5 17.6
2010-05-21 07:29:18 51°19.741 2°52.419 4.9 14.2 5 17.6
2010-05-21 07:29:24 51°19.764 2°52.422 4.8 14.2 5 17.8
2010-05-21 07:29:29 51°19.784 2°52.425 4.4 14.2 4 17.9
2010-05-21 07:29:34 51°19.804 2°52.427 4.2 14.2 4 17.9
2010-05-21 07:29:39 51°19.823 2°52.429 4 14.2 4 17.9
2010-05-21 07:29:44 51°19.843 2°52.432 3.9 14.1 4 17.8
2010-05-21 07:29:49 51°19.862 2°52.434 4 14.2 4 17.9
2010-05-21 07:29:54 51°19.882 2°52.436 4 14.2 4 18
2010-05-21 07:29:58 51°19.898 2°52.438 4.1 14.1 4 17.9
2010-05-21 07:30:04 51°19.921 2°52.441 4.1 14.2 4 17.9
2010-05-21 07:30:09 51°19.941 2°52.443 4.2 14.1 4 18
2010-05-21 07:30:14 51°19.96 2°52.445 4 14.1 3 17.9
2010-05-21 07:30:18 51°19.976 2°52.447 4 14.1 5 18
2010-05-21 07:30:24 51°19.999 2°52.45 4.2 14.1 4 18
2010-05-21 07:30:29 51°20.019 2°52.452 4 14.1 4 18
2010-05-21 07:30:34 51°20.038 2°52.454 4 14.1 4 18
2010-05-21 07:30:38 51°20.054 2°52.456 4.2 14.1 4 17.9
2010-05-21 07:30:44 51°20.077 2°52.458 4.2 14.1 4 17.9
2010-05-21 07:30:49 51°20.097 2°52.461 4.2 14.1 4 18
2010-05-21 07:30:54 51°20.116 2°52.463 4 14.1 4 18.1
2010-05-21 07:30:59 51°20.136 2°52.465 4 14.1 4 17.9
2010-05-21 07:31:03 51°20.151 2°52.467 4.1 14.1 4 17.8
2010-05-21 07:31:09 51°20.175 2°52.47 4.3 14.1 4 17.9
2010-05-21 07:31:14 51°20.194 2°52.472 4.5 14.1 5 18
2010-05-21 07:31:19 51°20.214 2°52.475 4.6 14.1 4 17.8
2010-05-21 07:31:24 51°20.233 2°52.477 4.4 14.1 4 17.8
2010-05-21 07:31:29 51°20.253 2°52.48 4.2 14.1 5 17.9
2010-05-21 07:31:34 51°20.272 2°52.482 4.4 14.1 5 18
2010-05-21 07:31:38 51°20.288 2°52.484 4.4 14.1 5 17.7
2010-05-21 07:31:44 51°20.311 2°52.487 4.6 14.1 4 17.9
2010-05-21 07:31:49 51°20.331 2°52.49 4.4 14.1 4 17.9
2010-05-21 07:31:54 51°20.35 2°52.492 4.3 14.1 4 17.7
2010-05-21 07:31:59 51°20.37 2°52.495 4.4 14.2 5 17.8
2010-05-21 07:32:04 51°20.389 2°52.497 4.3 14.1 4 17.7
2010-05-21 07:32:09 51°20.409 2°52.499 4.1 14.1 5 17.7
2010-05-21 07:32:14 51°20.428 2°52.502 4.2 14.1 4 17.5
2010-05-21 07:32:18 51°20.444 2°52.504 4.2 14.2 4 17.6
2010-05-21 07:32:24 51°20.467 2°52.506 4.2 14.1 4 17.6
2010-05-21 07:32:29 51°20.487 2°52.509 4.3 14.1 5 17.5
2010-05-21 07:32:34 51°20.506 2°52.511 4.4 14.1 5 17.5
2010-05-21 07:32:38 51°20.522 2°52.513 4.4 14.1 4 17.4
2010-05-21 07:32:44 51°20.545 2°52.517 4.5 14.1 5 16.6
2010-05-21 07:32:49 51°20.565 2°52.519 4.4 14.1 4 17
2010-05-21 07:32:54 51°20.584 2°52.521 4.3 14.1 5 17.3
2010-05-21 07:32:58 51°20.6 2°52.523 4.4 14.1 4 17
2010-05-21 07:33:04 51°20.623 2°52.526 4.4 14.1 5 16.8
2010-05-21 07:33:09 51°20.643 2°52.529 4.3 14.1 4 16.5
2010-05-21 07:33:14 51°20.662 2°52.531 4.1 14.1 5 16.8
2010-05-21 07:33:19 51°20.682 2°52.533 4.2 14.1 5 17
2010-05-21 07:33:24 51°20.701 2°52.536 4.3 14.1 5 16.8
2010-05-21 07:33:29 51°20.721 2°52.539 4.4 14.1 5 16.7
2010-05-21 07:33:34 51°20.74 2°52.542 4.5 14.1 5 16.3
2010-05-21 07:33:39 51°20.76 2°52.544 4.6 14.1 4 16.8
2010-05-21 07:33:44 51°20.779 2°52.547 4.3 14.1 5 16.5
2010-05-21 07:33:49 51°20.799 2°52.55 4.5 14.2 5 16.6
2010-05-21 07:33:54 51°20.818 2°52.552 4.4 14.2 4 16.6
2010-05-21 07:33:59 51°20.838 2°52.554 4.2 14.1 5 16.5
2010-05-21 07:34:04 51°20.857 2°52.557 4.1 14.1 4 16.7
2010-05-21 07:34:09 51°20.877 2°52.559 4.1 14.1 4 16.7
2010-05-21 07:34:14 51°20.896 2°52.562 4.1 14.1 4 16.7
2010-05-21 07:34:18 51°20.912 2°52.563 3.9 14.1 4 16.8
2010-05-21 07:34:24 51°20.935 2°52.566 3.8 14.1 5 16.9
2010-05-21 07:34:29 51°20.955 2°52.569 4.1 14.1 5 16.9
2010-05-21 07:34:34 51°20.975 2°52.572 4.4 14.2 5 16.8
2010-05-21 07:34:39 51°20.994 2°52.575 4.7 14.2 5 17
2010-05-21 07:34:43 51°21.01 2°52.577 4.4 14.1 5 16.8
2010-05-21 07:34:49 51°21.033 2°52.58 4.4 14.2 5 17.2
2010-05-21 07:34:54 51°21.053 2°52.583 4.5 14.2 5 17.1
2010-05-21 07:34:58 51°21.069 2°52.585 4.4 14.2 6 17.2
2010-05-21 07:35:04 51°21.092 2°52.589 4.5 14.2 5 17.2
2010-05-21 07:35:09 51°21.112 2°52.592 4.5 14.2 6 17.3
2010-05-21 07:35:14 51°21.131 2°52.595 4.5 14.2 5 17.1
2010-05-21 07:35:19 51°21.151 2°52.598 4.4 14.2 6 17.2
2010-05-21 07:35:23 51°21.167 2°52.6 4.4 14.2 5 17.5
2010-05-21 07:35:29 51°21.19 2°52.604 4.3 14.2 6 17.3
2010-05-21 07:35:34 51°21.21 2°52.607 4.3 14.2 5 17.6
2010-05-21 07:35:39 51°21.23 2°52.611 4.3 14.3 6 17.7
2010-05-21 07:35:43 51°21.245 2°52.613 4.3 14.3 5 17.7
2010-05-21 07:35:49 51°21.269 2°52.617 4.2 14.2 6 17.6
2010-05-21 07:35:54 51°21.288 2°52.62 4 14.2 5 17.9
2010-05-21 07:35:58 51°21.304 2°52.622 3.8 14.3 6 18.4
2010-05-21 07:36:04 51°21.328 2°52.626 4 14.3 6 18.2
2010-05-21 07:36:09 51°21.347 2°52.629 4 14.3 6 18.5
2010-05-21 07:36:14 51°21.367 2°52.632 4.1 14.3 6 18.4
2010-05-21 07:36:18 51°21.383 2°52.635 4.2 14.3 6 18.7
2010-05-21 07:36:24 51°21.406 2°52.639 4 14.3 6 18.7
2010-05-21 07:36:29 51°21.426 2°52.642 4 14.3 5 19
2010-05-21 07:36:34 51°21.446 2°52.645 3.8 14.3 6 19
2010-05-21 07:36:38 51°21.462 2°52.647 3.9 14.3 6 19.1
2010-05-21 07:36:43 51°21.481 2°52.651 4 14.3 6 19.6
2010-05-21 07:36:49 51°21.505 2°52.655 4.4 14.3 6 19.5
2010-05-21 07:36:54 51°21.525 2°52.658 4.4 14.3 6 19.8
2010-05-21 07:36:59 51°21.544 2°52.661 4.4 14.3 6 19.9
2010-05-21 07:37:03 51°21.56 2°52.664 4.2 14.3 6 20.1
2010-05-21 07:37:09 51°21.584 2°52.668 4.2 14.3 6 20.4
2010-05-21 07:37:14 51°21.604 2°52.671 4 14.3 5 20.6
2010-05-21 07:37:18 51°21.62 2°52.673 3.7 14.3 6 21
2010-05-21 07:37:23 51°21.639 2°52.677 4 14.3 6 21.1
2010-05-21 07:37:29 51°21.663 2°52.68 4 14.3 6 21.2
2010-05-21 07:37:34 51°21.683 2°52.684 4.1 14.3 6 21.3
2010-05-21 07:37:39 51°21.703 2°52.687 4 14.4 6 21.6
2010-05-21 07:37:44 51°21.723 2°52.69 4 14.3 6 21.8
2010-05-21 07:37:49 51°21.742 2°52.693 4.2 14.4 6 21.9
2010-05-21 07:37:54 51°21.762 2°52.697 4.2 14.4 6 22.3
2010-05-21 07:37:59 51°21.782 2°52.7 4.4 14.4 6 22.4
2010-05-21 07:38:03 51°21.798 2°52.703 4.6 14.4 6 22.7
2010-05-21 07:38:09 51°21.822 2°52.707 4.2 14.4 6 22.8
2010-05-21 07:38:14 51°21.841 2°52.71 4.3 14.3 6 23.1
2010-05-21 07:38:19 51°21.861 2°52.713 4.3 14.4 6 23.4
2010-05-21 07:38:24 51°21.881 2°52.716 4.2 14.4 6 23.6
2010-05-21 07:38:29 51°21.901 2°52.719 3.7 14.4 5 24.1
2010-05-21 07:38:34 51°21.921 2°52.722 3.7 14.4 5 24.2
2010-05-21 07:38:38 51°21.937 2°52.725 3.8 14.4 6 24.4
2010-05-21 07:38:44 51°21.961 2°52.728 3.9 14.4 5 24.4
2010-05-21 07:38:49 51°21.981 2°52.732 4 14.4 6 24.7
2010-05-21 07:38:54 51°22 2°52.734 4.3 14.4 5 24.7
2010-05-21 07:38:58 51°22.016 2°52.737 4.1 14.4 6 24.8
2010-05-21 07:39:04 51°22.04 2°52.741 4.3 14.4 6 24.9
2010-05-21 07:39:09 51°22.06 2°52.745 4.4 14.4 7 25.2
2010-05-21 07:39:14 51°22.08 2°52.748 4.6 14.4 6 25.4
2010-05-21 07:39:19 51°22.099 2°52.751 4.4 14.3 6 25.5
2010-05-21 07:39:23 51°22.115 2°52.754 4.4 14.4 7 25.3
2010-05-21 07:39:29 51°22.139 2°52.758 4.4 14.4 6 25.9
2010-05-21 07:39:34 51°22.159 2°52.761 4.1 14.3 6 25.4
2010-05-21 07:39:38 51°22.175 2°52.764 4.4 14.4 6 25.6
2010-05-21 07:39:43 51°22.195 2°52.767 4.4 14.4 6 25.6
2010-05-21 07:39:49 51°22.219 2°52.772 4.2 14.4 6 25.6
2010-05-21 07:39:54 51°22.239 2°52.775 3.9 14.4 6 25.5
2010-05-21 07:39:58 51°22.254 2°52.778 3.9 14.4 6 25.4
2010-05-21 07:40:04 51°22.278 2°52.782 4.2 14.4 7 25.5
2010-05-21 07:40:09 51°22.298 2°52.785 4.3 14.4 6 25.8
2010-05-21 07:40:14 51°22.318 2°52.789 4.5 14.4 7 25.6
2010-05-21 07:40:19 51°22.338 2°52.793 4.5 14.4 6 25.6
2010-05-21 07:40:23 51°22.354 2°52.796 4.4 14.5 7 25.2
2010-05-21 07:40:29 51°22.377 2°52.8 4.4 14.4 6 25
2010-05-21 07:40:34 51°22.398 2°52.804 4.3 14.5 7 24.9
2010-05-21 07:40:39 51°22.417 2°52.807 4.5 14.4 6 24.8
2010-05-21 07:40:44 51°22.437 2°52.811 4.4 14.4 6 24.7
2010-05-21 07:40:49 51°22.457 2°52.814 4.3 14.5 7 24.4
2010-05-21 07:40:54 51°22.477 2°52.818 4.4 14.5 7 24.4
2010-05-21 07:40:58 51°22.493 2°52.821 4.6 14.5 6 25
2010-05-21 07:41:04 51°22.517 2°52.825 4.4 14.5 7 24.9
2010-05-21 07:41:09 51°22.537 2°52.829 4.4 14.5 6 24.7
2010-05-21 07:41:14 51°22.557 2°52.832 4.3 14.5 6 24.6
2010-05-21 07:41:18 51°22.573 2°52.835 3.9 14.5 6 24
2010-05-21 07:41:23 51°22.593 2°52.839 4 14.5 6 24.7
2010-05-21 07:41:29 51°22.617 2°52.843 4.4 14.6 7 24.2
2010-05-21 07:41:34 51°22.637 2°52.847 4.5 14.5 6 24.7
2010-05-21 07:41:39 51°22.657 2°52.85 4.4 14.5 7 24.5
2010-05-21 07:41:43 51°22.673 2°52.853 4 14.6 6 24.1
2010-05-21 07:41:49 51°22.697 2°52.857 4.1 14.5 7 24.4
2010-05-21 07:41:54 51°22.717 2°52.861 4.4 14.5 6 24
2010-05-21 07:41:58 51°22.733 2°52.864 4.2 14.6 6 24.5
2010-05-21 07:42:03 51°22.753 2°52.867 4 14.6 6 24.5
2010-05-21 07:42:09 51°22.778 2°52.871 4.1 14.5 6 24.5
2010-05-21 07:42:14 51°22.797 2°52.875 4.3 14.5 6 24.6
2010-05-21 07:42:19 51°22.818 2°52.878 4.4 14.5 6 24.1
2010-05-21 07:42:23 51°22.834 2°52.881 4.3 14.5 6 24
2010-05-21 07:42:29 51°22.858 2°52.886 3.9 14.6 7 23.8
2010-05-21 07:42:34 51°22.878 2°52.889 4.3 14.6 6 22.4
2010-05-21 07:42:38 51°22.894 2°52.892 4.1 14.6 7 24.2
2010-05-21 07:42:44 51°22.918 2°52.896 4.4 14.6 6 24.8
2010-05-21 07:42:49 51°22.938 2°52.9 4.7 14.6 7 24.8
2010-05-21 07:42:54 51°22.958 2°52.904 4.7 14.5 6 24.6
2010-05-21 07:42:58 51°22.974 2°52.907 4.4 14.6 7 24.4
2010-05-21 07:43:04 51°22.998 2°52.911 4.3 14.5 6 24.3
2010-05-21 07:43:09 51°23.018 2°52.914 4.2 14.6 6 24.7
2010-05-21 07:43:14 51°23.038 2°52.918 4.2 14.5 6 24
2010-05-21 07:43:18 51°23.054 2°52.92 4.3 14.5 6 23.8
2010-05-21 07:43:24 51°23.078 2°52.925 4.6 14.5 7 21.6
2010-05-21 07:43:29 51°23.098 2°52.928 4.3 14.5 6 24.8
2010-05-21 07:43:34 51°23.118 2°52.932 4.2 14.6 6 24.9
2010-05-21 07:43:39 51°23.138 2°52.934 3.9 14.5 5 24
2010-05-21 07:43:43 51°23.154 2°52.937 3.7 14.5 6 23.5
2010-05-21 07:43:49 51°23.178 2°52.941 4.1 14.5 5 23.1
2010-05-21 07:43:54 51°23.199 2°52.944 4.1 14.5 6 23
2010-05-21 07:43:58 51°23.214 2°52.947 4.2 14.5 6 22.8
2010-05-21 07:44:03 51°23.235 2°52.95 4.2 14.6 6 22.7
2010-05-21 07:44:09 51°23.259 2°52.954 4.3 14.6 6 22.3
2010-05-21 07:44:14 51°23.279 2°52.958 4.4 14.6 6 22.5
2010-05-21 07:44:19 51°23.299 2°52.961 4.4 14.6 6 22.4
2010-05-21 07:44:23 51°23.315 2°52.964 4.4 14.6 6 22.3
2010-05-21 07:44:29 51°23.339 2°52.968 4.4 14.6 6 22.3
2010-05-21 07:44:34 51°23.359 2°52.972 4.4 14.6 6 22.3
2010-05-21 07:44:38 51°23.375 2°52.975 4.4 14.6 6 22.3
2010-05-21 07:44:44 51°23.4 2°52.979 4.4 14.6 6 22
2010-05-21 07:44:49 51°23.42 2°52.982 4.4 14.6 6 22.1
2010-05-21 07:44:54 51°23.44 2°52.986 4.4 14.7 6 22.4
2010-05-21 07:44:59 51°23.46 2°52.99 4.4 14.6 6 22.5
2010-05-21 07:45:04 51°23.48 2°52.993 4.4 14.7 6 22.7
2010-05-21 07:45:09 51°23.501 2°52.997 4.3 14.6 6 22.5
2010-05-21 07:45:14 51°23.521 2°53 4.3 14.7 6 22.7
2010-05-21 07:45:18 51°23.537 2°53.003 4.3 14.7 6 22
2010-05-21 07:45:24 51°23.561 2°53.007 4.3 14.7 7 23.1
2010-05-21 07:45:29 51°23.581 2°53.011 4.3 14.6 6 23.2
2010-05-21 07:45:34 51°23.601 2°53.016 5.1 14.7 8 23.4
2010-05-21 07:45:39 51°23.622 2°53.019 5.3 14.7 6 22.2
2010-05-21 07:45:43 51°23.638 2°53.023 5.8 14.7 8 23.3
2010-05-21 07:45:49 51°23.662 2°53.028 5.9 14.7 8 23.6
2010-05-21 07:45:54 51°23.682 2°53.034 6.3 14.7 9 23.1
2010-05-21 07:45:58 51°23.698 2°53.037 6.6 14.7 8 23.1
2010-05-21 07:46:03 51°23.718 2°53.042 6.6 14.7 9 22.8
2010-05-21 07:46:09 51°23.743 2°53.047 6.6 14.7 8 21.8
2010-05-21 07:46:14 51°23.763 2°53.052 6.3 14.7 8 22.5
2010-05-21 07:46:19 51°23.783 2°53.057 6.4 14.7 8 22.4
2010-05-21 07:46:23 51°23.799 2°53.061 6.4 14.7 8 22.5
2010-05-21 07:46:29 51°23.823 2°53.066 6.3 14.7 8 21.3
2010-05-21 07:46:34 51°23.844 2°53.071 6.2 14.7 8 21.7
2010-05-21 07:46:38 51°23.86 2°53.075 6.5 14.7 8 21.5
2010-05-21 07:46:44 51°23.884 2°53.08 6.4 14.7 8 21.3
2010-05-21 07:46:49 51°23.904 2°53.085 6.4 14.8 9 21.1
2010-05-21 07:46:54 51°23.924 2°53.09 6.6 14.8 8 20.8
2010-05-21 07:46:58 51°23.941 2°53.094 6.6 14.7 9 21
2010-05-21 07:47:04 51°23.965 2°53.1 6.6 14.7 9 19.2
2010-05-21 07:47:09 51°23.985 2°53.104 6.8 14.8 8 19.7
2010-05-21 07:47:14 51°24.006 2°53.109 6.7 14.8 8 19.9
2010-05-21 07:47:18 51°24.022 2°53.113 6.6 14.7 8 20.2
2010-05-21 07:47:24 51°24.046 2°53.118 6.6 14.7 7 19
2010-05-21 07:47:29 51°24.066 2°53.122 6.3 14.6 7 19.6
2010-05-21 07:47:34 51°24.086 2°53.126 6 14.5 7 19.7
2010-05-21 07:47:38 51°24.102 2°53.129 6 14.6 8 19.7
2010-05-21 07:47:44 51°24.126 2°53.134 6 14.5 7 19.9
2010-05-21 07:47:49 51°24.146 2°53.139 6.2 14.4 8 19.7
2010-05-21 07:47:54 51°24.166 2°53.142 6.4 14.4 7 19.8
2010-05-21 07:47:59 51°24.186 2°53.147 6.3 14.4 7 20
2010-05-21 07:48:03 51°24.201 2°53.149 6 14.3 6 21.6
2010-05-21 07:48:09 51°24.225 2°53.154 5.9 14.3 6 19.7
2010-05-21 07:48:14 51°24.245 2°53.157 5.9 14.4 7 16.1
2010-05-21 07:48:18 51°24.261 2°53.16 5.9 14.3 6 18
2010-05-21 07:48:24 51°24.284 2°53.165 6 14.2 7 19
2010-05-21 07:48:29 51°24.304 2°53.169 6.6 14.3 6 19.4
2010-05-21 07:48:34 51°24.324 2°53.171 6.2 14.3 5 20.1
2010-05-21 07:48:39 51°24.343 2°53.175 5.8 14.2 6 20.7
2010-05-21 07:48:43 51°24.359 2°53.177 5.9 14.3 6 19.9
2010-05-21 07:48:49 51°24.383 2°53.181 6.3 14.3 6 18.5
2010-05-21 07:48:54 51°24.403 2°53.184 6.5 14.2 6 19.4
2010-05-21 07:48:59 51°24.423 2°53.187 6.6 14.3 6 20.1
2010-05-21 07:49:04 51°24.442 2°53.191 6.6 14.3 6 19.1
2010-05-21 07:49:09 51°24.462 2°53.194 6.5 14.3 6 19.6
2010-05-21 07:49:14 51°24.482 2°53.198 6.6 14.3 6 20.3
2010-05-21 07:49:19 51°24.501 2°53.201 6.5 14.3 6 20.8
2010-05-21 07:49:24 51°24.521 2°53.204 6.5 14.3 5 21.1
2010-05-21 07:49:29 51°24.541 2°53.208 6.4 14.3 6 21.6
2010-05-21 07:49:34 51°24.561 2°53.211 6.6 14.2 6 21.5
2010-05-21 07:49:39 51°24.58 2°53.214 6.5 14.3 6 22
2010-05-21 07:49:44 51°24.6 2°53.217 6.3 14.3 6 22
2010-05-21 07:49:49 51°24.62 2°53.22 6.5 14.3 5 21.8
2010-05-21 07:49:54 51°24.639 2°53.224 6.1 14.3 6 21.5
2010-05-21 07:49:58 51°24.655 2°53.227 6.4 14.3 6 21.5
2010-05-21 07:50:04 51°24.679 2°53.231 6.6 14.3 6 21.4
2010-05-21 07:50:09 51°24.698 2°53.234 6.6 14.3 5 20.1
2010-05-21 07:50:14 51°24.718 2°53.237 6 14.2 6 18.6
2010-05-21 07:50:19 51°24.737 2°53.241 6.2 14.3 6 19.4
2010-05-21 07:50:23 51°24.753 2°53.244 6.7 14.3 6 19.7
2010-05-21 07:50:29 51°24.777 2°53.248 6.6 14.3 7 20
2010-05-21 07:50:34 51°24.796 2°53.252 7.3 14.3 7 20
2010-05-21 07:50:38 51°24.812 2°53.254 7 14.3 6 19.7
2010-05-21 07:50:43 51°24.832 2°53.258 6.9 14.3 7 19.1
2010-05-21 07:50:49 51°24.855 2°53.262 6.7 14.3 6 18.7
2010-05-21 07:50:54 51°24.875 2°53.265 6.4 14.3 6 19.5
2010-05-21 07:50:58 51°24.891 2°53.268 6.6 14.3 6 20.1
2010-05-21 07:51:04 51°24.915 2°53.272 6.5 14.3 5 20.3
2010-05-21 07:51:09 51°24.934 2°53.276 6.4 14.3 6 21.1
2010-05-21 07:51:14 51°24.954 2°53.279 6.4 14.3 5 21.1
2010-05-21 07:51:19 51°24.974 2°53.282 6.2 14.4 6 21.6
2010-05-21 07:51:23 51°24.99 2°53.284 5.9 14.4 5 21.8
2010-05-21 07:51:29 51°25.013 2°53.288 6 14.4 6 21.8
2010-05-21 07:51:34 51°25.033 2°53.291 6 14.3 5 21.4
2010-05-21 07:51:39 51°25.053 2°53.295 5.9 14.3 6 21.6
2010-05-21 07:51:44 51°25.073 2°53.297 6.1 14.3 5 21.4
2010-05-21 07:51:49 51°25.092 2°53.301 6 14.3 6 22.1
2010-05-21 07:51:54 51°25.112 2°53.303 5.9 14.3 5 22.5
2010-05-21 07:51:58 51°25.128 2°53.306 5.9 14.3 6 22.9
2010-05-21 07:52:04 51°25.152 2°53.309 5.8 14.3 5 23.1
2010-05-21 07:52:09 51°25.171 2°53.313 6.1 14.3 6 23.7
2010-05-21 07:52:14 51°25.191 2°53.316 6.2 14.3 6 23.5
2010-05-21 07:52:18 51°25.207 2°53.319 6.4 14.3 6 23.7
2010-05-21 07:52:24 51°25.23 2°53.323 6.6 14.3 5 23.6
2010-05-21 07:52:29 51°25.25 2°53.326 6.1 14.3 6 23.5
2010-05-21 07:52:34 51°25.27 2°53.329 6.1 14.3 6 23.3
2010-05-21 07:52:38 51°25.286 2°53.332 6.2 14.3 6 23.3
2010-05-21 07:52:43 51°25.305 2°53.335 6.3 14.3 6 23.3
2010-05-21 07:52:49 51°25.329 2°53.339 6.5 14.3 6 23.7
2010-05-21 07:52:54 51°25.348 2°53.342 6.3 14.3 6 23.9
2010-05-21 07:52:58 51°25.364 2°53.345 6.5 14.3 6 24
2010-05-21 07:53:04 51°25.388 2°53.348 6.3 14.3 5 24.2
2010-05-21 07:53:09 51°25.408 2°53.351 6.1 14.3 6 24.4
2010-05-21 07:53:14 51°25.427 2°53.355 6.3 14.3 6 24.5
2010-05-21 07:53:19 51°25.447 2°53.358 6.5 14.3 6 24.8
2010-05-21 07:53:23 51°25.463 2°53.361 6.5 14.3 6 25
2010-05-21 07:53:29 51°25.486 2°53.365 6.6 14.3 6 25.2
2010-05-21 07:53:34 51°25.506 2°53.368 6.5 14.3 6 25.4
2010-05-21 07:53:39 51°25.526 2°53.371 6.4 14.4 6 25.7
2010-05-21 07:53:44 51°25.546 2°53.375 6.4 14.4 6 25.7
2010-05-21 07:53:49 51°25.566 2°53.379 6.8 14.4 7 26.1
2010-05-21 07:53:54 51°25.586 2°53.382 7.2 14.4 7 26.3
2010-05-21 07:53:59 51°25.605 2°53.387 6.8 14.5 7 26.2
2010-05-21 07:54:04 51°25.625 2°53.39 6.6 14.5 6 26.7
2010-05-21 07:54:09 51°25.645 2°53.394 6.3 14.5 7 26.7
2010-05-21 07:54:14 51°25.665 2°53.398 6.5 14.5 6 26.6
2010-05-21 07:54:18 51°25.681 2°53.401 6.4 14.6 7 27.4
2010-05-21 07:54:24 51°25.705 2°53.405 6.4 14.6 6 27.5
2010-05-21 07:54:29 51°25.725 2°53.409 6.3 14.5 7 27.6
2010-05-21 07:54:34 51°25.746 2°53.412 6.1 14.5 5 27.8
2010-05-21 07:54:39 51°25.766 2°53.416 6.2 14.6 6 27.6
2010-05-21 07:54:43 51°25.782 2°53.418 5.8 14.5 5 27.6
2010-05-21 07:54:49 51°25.806 2°53.422 5.9 14.6 6 28.4
2010-05-21 07:54:54 51°25.826 2°53.425 6.1 14.6 6 28.6
2010-05-21 07:54:58 51°25.842 2°53.429 6.5 14.6 8 28.8
2010-05-21 07:55:04 51°25.866 2°53.433 6.8 14.6 7 29.2
2010-05-21 07:55:09 51°25.886 2°53.438 7 14.7 8 29.5
2010-05-21 07:55:14 51°25.906 2°53.442 7.1 14.6 7 29.9
2010-05-21 07:55:19 51°25.926 2°53.446 6.9 14.6 8 30.1
2010-05-21 07:55:23 51°25.942 2°53.449 6.9 14.6 7 30.6
2010-05-21 07:55:29 51°25.966 2°53.454 6.7 14.6 7 31.1
2010-05-21 07:55:34 51°25.986 2°53.457 6.4 14.6 6 31.5
2010-05-21 07:55:39 51°26.007 2°53.461 5.9 14.6 6 31.5
2010-05-21 07:55:44 51°26.027 2°53.465 5.9 14.6 6 31.6
2010-05-21 07:55:49 51°26.047 2°53.469 5.9 14.6 7 31.9
2010-05-21 07:55:54 51°26.067 2°53.473 6.3 14.6 7 32.1
2010-05-21 07:55:59 51°26.087 2°53.476 6.2 14.5 7 32.3
2010-05-21 07:56:04 51°26.107 2°53.481 6.5 14.6 7 32.4
2010-05-21 07:56:09 51°26.127 2°53.484 6.4 14.6 7 32.8
2010-05-21 07:56:14 51°26.147 2°53.489 6.1 14.6 7 32.6
2010-05-21 07:56:19 51°26.167 2°53.492 6.5 14.6 7 32.9
2010-05-21 07:56:24 51°26.187 2°53.496 6.2 14.6 7 33.2
2010-05-21 07:56:29 51°26.207 2°53.499 6 14.5 6 33.3
2010-05-21 07:56:34 51°26.227 2°53.503 5.8 14.6 6 33.4
2010-05-21 07:56:39 51°26.247 2°53.507 5.8 14.5 6 33
2010-05-21 07:56:44 51°26.267 2°53.511 5.9 14.6 7 33.1
2010-05-21 07:56:49 51°26.287 2°53.514 6.3 14.5 7 33.2
2010-05-21 07:56:54 51°26.307 2°53.519 6.3 14.5 7 33.4
2010-05-21 07:56:58 51°26.323 2°53.522 6.6 14.5 8 33.6
2010-05-21 07:57:04 51°26.347 2°53.528 6.7 14.6 8 33.7
2010-05-21 07:57:09 51°26.367 2°53.531 6.6 14.5 7 33.9
2010-05-21 07:57:14 51°26.387 2°53.535 6.4 14.5 7 34
2010-05-21 07:57:18 51°26.403 2°53.538 5.9 14.5 6 34.1
2010-05-21 07:57:23 51°26.423 2°53.542 5.9 14.4 7 33.8
2010-05-21 07:57:29 51°26.447 2°53.547 5.9 14.5 7 33.6
2010-05-21 07:57:34 51°26.466 2°53.551 6 14.5 7 33.5
2010-05-21 07:57:39 51°26.486 2°53.555 6.2 14.5 7 33.1
2010-05-21 07:57:43 51°26.502 2°53.558 6.2 14.4 7 33
2010-05-21 07:57:49 51°26.526 2°53.562 6.3 14.5 7 33.5
2010-05-21 07:57:54 51°26.546 2°53.566 6.2 14.5 6 33.8
2010-05-21 07:57:58 51°26.562 2°53.569 6 14.5 6 33.9
2010-05-21 07:58:04 51°26.586 2°53.574 5.9 14.5 7 33.6
2010-05-21 07:58:09 51°26.606 2°53.578 6.2 14.5 7 33.5
2010-05-21 07:58:14 51°26.626 2°53.582 6.5 14.6 7 33.5
2010-05-21 07:58:19 51°26.646 2°53.586 6.4 14.5 7 33.1
2010-05-21 07:58:24 51°26.666 2°53.589 6.4 14.5 7 32.9
2010-05-21 07:58:29 51°26.686 2°53.593 6.1 14.5 7 32.6
2010-05-21 07:58:34 51°26.706 2°53.597 6.1 14.5 7 32.1
2010-05-21 07:58:38 51°26.722 2°53.6 6.1 14.5 7 30.8
2010-05-21 07:58:44 51°26.746 2°53.605 6.2 14.6 7 31.3
2010-05-21 07:58:49 51°26.766 2°53.609 6.4 14.5 7 31
2010-05-21 07:58:54 51°26.786 2°53.613 6.4 14.5 7 30.5
2010-05-21 07:58:58 51°26.802 2°53.617 6.3 14.5 7 29.6
2010-05-21 07:59:04 51°26.826 2°53.621 5.9 14.5 7 28.8
2010-05-21 07:59:09 51°26.846 2°53.625 6 14.6 7 27.9
2010-05-21 07:59:14 51°26.866 2°53.629 6.1 14.6 6 27.1
2010-05-21 07:59:19 51°26.886 2°53.633 6 14.6 7 26.8
2010-05-21 07:59:23 51°26.902 2°53.636 6.2 14.6 7 27
2010-05-21 07:59:29 51°26.926 2°53.641 6.5 14.6 7 28
2010-05-21 07:59:34 51°26.947 2°53.645 6.4 14.6 7 28.4
2010-05-21 07:59:38 51°26.963 2°53.648 6.2 14.6 7 28.4
2010-05-21 07:59:44 51°26.987 2°53.653 6.4 14.6 7 27.9
2010-05-21 07:59:49 51°27.007 2°53.657 6.5 14.6 8 27.9
2010-05-21 07:59:54 51°27.027 2°53.661 6.5 14.6 7 27.3
2010-05-21 07:59:59 51°27.047 2°53.666 6.4 14.6 7 27.1
2010-05-21 08:00:03 51°27.063 2°53.669 6.4 14.6 8 26.7
2010-05-21 08:00:09 51°27.087 2°53.674 6.5 14.6 7 26
2010-05-21 08:00:14 51°27.107 2°53.679 6.7 14.6 8 25.7
2010-05-21 08:00:19 51°27.127 2°53.683 7 14.6 7 25.4
2010-05-21 08:00:24 51°27.147 2°53.687 6.5 14.6 8 25.1
2010-05-21 08:00:29 51°27.167 2°53.691 6.5 14.6 7 25
2010-05-21 08:00:34 51°27.188 2°53.696 6.5 14.6 7 25.1
2010-05-21 08:00:39 51°27.208 2°53.7 6.4 14.6 7 25.5
2010-05-21 08:00:44 51°27.228 2°53.704 6.4 14.6 7 25.6
2010-05-21 08:00:49 51°27.248 2°53.708 6 14.6 7 26.2
2010-05-21 08:00:54 51°27.268 2°53.712 6.1 14.6 7 26.3
2010-05-21 08:00:58 51°27.284 2°53.715 6 14.6 7 25.9
2010-05-21 08:01:04 51°27.308 2°53.72 6 14.6 7 26.5
2010-05-21 08:01:09 51°27.328 2°53.724 6 14.6 7 26.4
2010-05-21 08:01:14 51°27.348 2°53.728 6 14.6 7 26.2
2010-05-21 08:01:19 51°27.369 2°53.732 6.1 14.6 7 26.6
2010-05-21 08:01:23 51°27.385 2°53.735 6 14.6 7 25.7
2010-05-21 08:01:29 51°27.409 2°53.739 5.9 14.6 7 26.3
2010-05-21 08:01:34 51°27.429 2°53.743 5.8 14.6 7 26.1
2010-05-21 08:01:38 51°27.445 2°53.747 6.1 14.6 7 25.8
2010-05-21 08:01:44 51°27.469 2°53.751 6.1 14.6 7 25.5
2010-05-21 08:01:49 51°27.489 2°53.755 6.1 14.6 7 25.6
2010-05-21 08:01:54 51°27.509 2°53.758 5.9 14.6 6 25.1
2010-05-21 08:01:59 51°27.529 2°53.763 6 14.6 8 23.3
2010-05-21 08:02:03 51°27.546 2°53.766 6.2 14.6 7 24.7
2010-05-21 08:02:09 51°27.569 2°53.771 6.3 14.6 8 25.2
2010-05-21 08:02:14 51°27.59 2°53.775 6.5 14.5 6 25
2010-05-21 08:02:19 51°27.61 2°53.779 6 14.6 7 24.2
2010-05-21 08:02:24 51°27.63 2°53.782 6.2 14.5 6 22.4
2010-05-21 08:02:29 51°27.65 2°53.787 6 14.6 7 24
2010-05-21 08:02:34 51°27.67 2°53.79 6.3 14.6 7 24.2
2010-05-21 08:02:38 51°27.686 2°53.794 6.5 14.7 7 24.6
2010-05-21 08:02:44 51°27.71 2°53.798 6.5 14.6 6 22.6
2010-05-21 08:02:49 51°27.73 2°53.802 6.4 14.6 6 23.1
2010-05-21 08:02:54 51°27.75 2°53.806 5.8 14.6 7 21.4
2010-05-21 08:02:58 51°27.766 2°53.809 6.1 14.6 7 23.1
2010-05-21 08:03:04 51°27.791 2°53.813 5.9 14.6 6 22.6
2010-05-21 08:03:09 51°27.811 2°53.817 5.9 14.6 6 21.2
2010-05-21 08:03:14 51°27.831 2°53.821 6 14.7 6 22.5
2010-05-21 08:03:18 51°27.847 2°53.823 6 14.6 6 22.5
2010-05-21 08:03:24 51°27.871 2°53.828 6.1 14.6 7 22.4
2010-05-21 08:03:29 51°27.891 2°53.832 6.3 14.6 6 21.7
2010-05-21 08:03:34 51°27.911 2°53.835 6 14.6 6 21.7
2010-05-21 08:03:38 51°27.927 2°53.839 6.3 14.6 7 20.7
2010-05-21 08:03:44 51°27.952 2°53.843 6.3 14.6 6 21.4
2010-05-21 08:03:49 51°27.972 2°53.847 6.2 14.6 7 21.7
2010-05-21 08:03:54 51°27.992 2°53.851 6.5 14.7 7 21.3
2010-05-21 08:03:58 51°28.008 2°53.854 6.6 14.6 7 22.7
2010-05-21 08:04:03 51°28.028 2°53.859 6.6 14.6 7 23.5
2010-05-21 08:04:09 51°28.052 2°53.863 6.6 14.7 6 22.9
2010-05-21 08:04:14 51°28.073 2°53.867 6.1 14.7 7 23.5
2010-05-21 08:04:19 51°28.093 2°53.871 6.3 14.6 6 23.6
2010-05-21 08:04:23 51°28.109 2°53.873 5.9 14.7 7 22.3
2010-05-21 08:04:29 51°28.133 2°53.878 6 14.6 6 22.8
2010-05-21 08:04:34 51°28.153 2°53.881 5.9 14.6 7 22.9
2010-05-21 08:04:38 51°28.17 2°53.884 5.9 14.7 6 22.1
2010-05-21 08:04:44 51°28.194 2°53.888 5.9 14.7 6 22.8
2010-05-21 08:04:49 51°28.214 2°53.892 5.9 14.6 6 20.9
2010-05-21 08:04:54 51°28.234 2°53.895 5.9 14.6 6 21.6
2010-05-21 08:04:58 51°28.25 2°53.898 5.8 14.6 6 22.6
2010-05-21 08:05:04 51°28.274 2°53.902 6.1 14.6 7 23.2
2010-05-21 08:05:09 51°28.294 2°53.906 6.3 14.6 7 23.8
2010-05-21 08:05:14 51°28.314 2°53.91 6.6 14.6 7 24.1
2010-05-21 08:05:19 51°28.334 2°53.915 6.6 14.6 7 24
2010-05-21 08:05:23 51°28.35 2°53.918 6.6 14.6 7 23.4
2010-05-21 08:05:29 51°28.375 2°53.923 6.5 14.6 8 23.1
2010-05-21 08:05:34 51°28.395 2°53.927 6.5 14.6 6 23.4
2010-05-21 08:05:38 51°28.411 2°53.93 6.2 14.7 7 24
2010-05-21 08:05:44 51°28.435 2°53.935 6.5 14.6 7 24.1
2010-05-21 08:05:49 51°28.455 2°53.938 6.1 14.7 7 24.4
2010-05-21 08:05:54 51°28.476 2°53.942 6.1 14.6 7 24.7
2010-05-21 08:05:58 51°28.492 2°53.945 6.3 14.6 7 24.9
2010-05-21 08:06:03 51°28.512 2°53.949 6.5 14.6 7 25.2
2010-05-21 08:06:09 51°28.536 2°53.953 6.2 14.6 7 25.4
2010-05-21 08:06:14 51°28.556 2°53.957 6.5 14.6 7 25.8
2010-05-21 08:06:19 51°28.576 2°53.961 6.4 14.6 7 25.8
2010-05-21 08:06:23 51°28.592 2°53.965 6.5 14.6 8 25.9
2010-05-21 08:06:29 51°28.616 2°53.97 6.6 14.6 7 25.9
2010-05-21 08:06:34 51°28.636 2°53.974 6.6 14.6 7 25.9
2010-05-21 08:06:39 51°28.657 2°53.978 6.6 14.6 7 25.9
2010-05-21 08:06:43 51°28.673 2°53.98 6.3 14.6 6 25.8
2010-05-21 08:06:49 51°28.697 2°53.985 6.1 14.6 7 26
2010-05-21 08:06:54 51°28.717 2°53.989 6.3 14.6 7 26
2010-05-21 08:06:58 51°28.733 2°53.992 6.5 14.6 6 26.1
2010-05-21 08:07:03 51°28.753 2°53.996 6 14.6 7 26.2
2010-05-21 08:07:09 51°28.777 2°54 6.3 14.6 6 26.2
2010-05-21 08:07:14 51°28.797 2°54.003 5.9 14.6 6 26.4
2010-05-21 08:07:19 51°28.817 2°54.008 6.1 14.5 7 26.3
2010-05-21 08:07:23 51°28.833 2°54.01 6.1 14.6 7 26.5
2010-05-21 08:07:29 51°28.857 2°54.015 6.1 14.5 7 26.5
2010-05-21 08:07:34 51°28.878 2°54.018 6 14.5 7 26.6
2010-05-21 08:07:38 51°28.893 2°54.021 6.2 14.5 7 26.8
2010-05-21 08:07:43 51°28.913 2°54.025 6.3 14.5 7 26.8
2010-05-21 08:07:49 51°28.937 2°54.03 6.2 14.5 7 26.9
2010-05-21 08:07:54 51°28.957 2°54.034 6.5 14.5 7 27.1
2010-05-21 08:07:58 51°28.973 2°54.037 6.6 14.5 7 27.3
2010-05-21 08:08:03 51°28.993 2°54.041 6.6 14.4 7 27.4
2010-05-21 08:08:09 51°29.017 2°54.045 6.2 14.5 6 27.5
2010-05-21 08:08:13 51°29.033 2°54.048 6.2 14.4 6 27.6
2010-05-21 08:08:18 51°29.053 2°54.051 5.7 14.4 6 27.7
2010-05-21 08:08:23 51°29.073 2°54.055 5.8 14.5 7 27.8
2010-05-21 08:08:29 51°29.097 2°54.06 6.3 14.4 7 27.9
2010-05-21 08:08:34 51°29.117 2°54.064 6.5 14.4 7 28.1
2010-05-21 08:08:38 51°29.133 2°54.067 6.6 14.4 8 28.2
2010-05-21 08:08:43 51°29.153 2°54.071 6.7 14.4 6 28.2
2010-05-21 08:08:48 51°29.172 2°54.074 6.1 14.5 6 28.6
2010-05-21 08:08:54 51°29.196 2°54.079 6.1 14.4 6 28.3
2010-05-21 08:08:58 51°29.212 2°54.081 6.1 14.4 6 28.8
2010-05-21 08:09:03 51°29.232 2°54.085 6.3 14.4 7 28.8
2010-05-21 08:09:09 51°29.256 2°54.09 5.9 14.4 7 28.8
2010-05-21 08:09:14 51°29.275 2°54.094 6.6 14.4 8 28.9
2010-05-21 08:09:18 51°29.291 2°54.097 6.3 14.5 6 29
2010-05-21 08:09:23 51°29.311 2°54.102 6.5 14.5 9 29.2
2010-05-21 08:09:29 51°29.335 2°54.106 6.8 14.4 7 29.3
2010-05-21 08:09:33 51°29.351 2°54.11 6.6 14.5 8 29.3
2010-05-21 08:09:38 51°29.371 2°54.114 6.6 14.5 8 29.4
2010-05-21 08:09:43 51°29.391 2°54.119 6.6 14.5 8 29.4
2010-05-21 08:09:49 51°29.415 2°54.124 6.4 14.5 9 29.6
2010-05-21 08:09:54 51°29.435 2°54.129 6.8 14.5 8 29.7
2010-05-21 08:09:58 51°29.451 2°54.132 6.6 14.5 7 29.9
2010-05-21 08:10:03 51°29.471 2°54.137 6.3 14.5 8 30.1
2010-05-21 08:10:08 51°29.491 2°54.142 6.4 14.6 8 30.1
2010-05-21 08:10:14 51°29.515 2°54.147 6.5 14.5 8 30.2
2010-05-21 08:10:18 51°29.531 2°54.151 6.5 14.5 8 30.3
2010-05-21 08:10:23 51°29.55 2°54.155 5.8 14.6 7 30.5
2010-05-21 08:10:29 51°29.575 2°54.161 5.8 14.6 8 30.5
2010-05-21 08:10:34 51°29.595 2°54.165 5.9 14.6 8 30.9
2010-05-21 08:10:38 51°29.611 2°54.169 5.9 14.6 8 31.2
2010-05-21 08:10:42 51°29.627 2°54.172 5.9 14.6 8 31.2
2010-05-21 08:10:49 51°29.655 2°54.178 5.8 14.5 8 31.7
2010-05-21 08:10:54 51°29.675 2°54.183 6.4 14.6 9 31.8
2010-05-21 08:10:58 51°29.691 2°54.186 5.6 14.6 7 31.9
2010-05-21 08:11:03 51°29.711 2°54.191 5.9 14.8 10 32.1
2010-05-21 08:11:08 51°29.731 2°54.195 6.4 14.7 8 32
2010-05-21 08:11:14 51°29.755 2°54.202 6.4 14.8 9 32.2
2010-05-21 08:11:18 51°29.772 2°54.206 6.4 14.8 8 32.5
2010-05-21 08:11:23 51°29.792 2°54.211 6.5 14.8 9 32.6
2010-05-21 08:11:28 51°29.812 2°54.216 6.7 14.8 8 32.9
2010-05-21 08:11:34 51°29.837 2°54.221 6.1 14.7 9 32.9
2010-05-21 08:11:38 51°29.853 2°54.225 6.1 14.8 8 33
2010-05-21 08:11:43 51°29.873 2°54.229 5.7 14.8 8 33.5
2010-05-21 08:11:49 51°29.898 2°54.235 5.8 14.8 9 33.5
2010-05-21 08:11:54 51°29.918 2°54.24 6.1 14.8 8 33.5
2010-05-21 08:11:58 51°29.934 2°54.244 6.5 14.8 9 33.2
2010-05-21 08:12:03 51°29.954 2°54.249 6.6 14.8 9 33.7
2010-05-21 08:12:09 51°29.979 2°54.255 6.8 14.7 9 33.5
2010-05-21 08:12:13 51°29.995 2°54.259 6.6 14.7 8 33.6
2010-05-21 08:12:18 51°30.015 2°54.264 6.6 14.7 9 34
2010-05-21 08:12:23 51°30.035 2°54.268 6.1 14.7 8 34.4
2010-05-21 08:12:29 51°30.06 2°54.274 5.9 14.7 8 34.1
2010-05-21 08:12:34 51°30.08 2°54.279 5.9 14.7 8 34
2010-05-21 08:12:38 51°30.096 2°54.282 5.7 14.7 8 33.5
2010-05-21 08:12:43 51°30.116 2°54.287 6 14.7 9 32.5
2010-05-21 08:12:49 51°30.141 2°54.292 6.1 14.7 7 33.2
2010-05-21 08:12:54 51°30.161 2°54.297 5.9 14.8 9 33.8
2010-05-21 08:12:58 51°30.177 2°54.301 6.6 14.7 8 34.3
2010-05-21 08:13:03 51°30.197 2°54.306 5.9 14.8 9 34.2
2010-05-21 08:13:09 51°30.222 2°54.312 6.5 14.8 8 34
2010-05-21 08:13:14 51°30.242 2°54.316 6.1 14.7 7 34
2010-05-21 08:13:18 51°30.258 2°54.32 6.2 14.7 10 34.1
2010-05-21 08:13:23 51°30.278 2°54.324 5.9 14.7 6 34.3
2010-05-21 08:13:28 51°30.298 2°54.33 5.9 14.8 11 34.3
2010-05-21 08:13:35 51°30.327 2°54.335 5.8 14.6 5 34.6
2010-05-21 08:13:39 51°30.342 2°54.341 6.7 14.8 12 34.9
2010-05-21 08:13:44 51°30.363 2°54.343 6.3 14.6 5 35.7
2010-05-21 08:13:49 51°30.383 2°54.35 6.1 14.7 10 36.3
2010-05-21 08:13:54 51°30.403 2°54.353 6 14.6 6 36.5
2010-05-21 08:13:59 51°30.423 2°54.359 5.8 14.7 9 36.7
2010-05-21 08:14:04 51°30.443 2°54.363 6 14.7 7 36
2010-05-21 08:14:09 51°30.464 2°54.368 6.1 14.8 9 36
2010-05-21 08:14:14 51°30.484 2°54.373 6 14.7 8 35.7
2010-05-21 08:14:19 51°30.504 2°54.378 6.3 14.7 9 35.4
2010-05-21 08:14:23 51°30.52 2°54.382 6.7 14.7 8 34.9
2010-05-21 08:14:29 51°30.544 2°54.388 6.2 14.7 10 34.6
2010-05-21 08:14:34 51°30.564 2°54.393 6.7 14.7 8 33.9
2010-05-21 08:14:39 51°30.585 2°54.397 6 14.7 9 33.2
2010-05-21 08:14:44 51°30.605 2°54.402 6.4 14.7 8 32.8
2010-05-21 08:14:49 51°30.625 2°54.407 5.9 14.7 8 32.3
2010-05-21 08:14:54 51°30.645 2°54.411 6 14.8 8 31.6
2010-05-21 08:14:59 51°30.666 2°54.416 5.9 14.7 8 31.3
2010-05-21 08:15:03 51°30.682 2°54.42 6.1 14.7 8 30.8
2010-05-21 08:15:08 51°30.702 2°54.424 5.9 14.7 9 29.9
2010-05-21 08:15:14 51°30.726 2°54.43 6.4 14.7 8 28.6
2010-05-21 08:15:19 51°30.746 2°54.435 6 14.7 8 27.3
2010-05-21 08:15:23 51°30.762 2°54.438 6.5 14.7 8 25.3
2010-05-21 08:15:29 51°30.787 2°54.444 6.5 14.8 8 21.7
2010-05-21 08:15:33 51°30.803 2°54.448 6.2 14.7 8 18.3
2010-05-21 08:15:39 51°30.827 2°54.453 6 14.7 8 18
2010-05-21 08:15:44 51°30.848 2°54.457 6.2 14.8 8 20.2
2010-05-21 08:15:48 51°30.864 2°54.461 6.5 14.9 8 17.6
2010-05-21 08:15:53 51°30.884 2°54.465 6.5 14.9 7 20
2010-05-21 08:15:59 51°30.909 2°54.47 6.3 14.9 7 20.5
2010-05-21 08:16:03 51°30.925 2°54.473 5.7 14.8 6 18.9